Time;durP1;ratioP1;P1;durP2;ratioP2;P2;SDS_P1;SDS_P2;PMS_P1;PMS_P2;Temp;Humidity;BMP_temperature;BMP_pressure;BME280_temperature;BME280_humidity;BME280_pressure;Samples;Min_cycle;Max_cycle;Signal;HPM_P1;HPM_P2
2021/01/26 00:00:52;;;;;;;36.95;27.17;;;;;;;;;;5068530;28;20634;-73
2021/01/26 00:03:18;;;;;;;41.55;28.48;;;;;;;;;;5068749;28;20258;-74
2021/01/26 00:05:44;;;;;;;39.35;27.52;;;;;;;;;;5068269;28;20544;-77
2021/01/26 00:08:10;;;;;;;45.70;28.85;;;;;;;;;;5068152;28;20320;-75
2021/01/26 00:10:37;;;;;;;43.72;28.38;;;;;;;;;;5068664;28;20172;-72
2021/01/26 00:13:04;;;;;;;39.25;28.30;;;;;;;;;;5067977;28;20669;-72
2021/01/26 00:15:30;;;;;;;40.95;27.75;;;;;;;;;;5070174;28;20259;-76
2021/01/26 00:17:56;;;;;;;37.15;27.58;;;;;;;;;;5069194;28;20180;-74
2021/01/26 00:20:22;;;;;;;41.28;27.92;;;;;;;;;;5070549;28;20230;-76
2021/01/26 00:22:48;;;;;;;44.75;28.08;;;;;;;;;;5071823;28;20680;-74
2021/01/26 00:25:21;;;;;;;41.00;28.17;;;;;;;;;;5069992;28;20195;-74
2021/01/26 00:27:47;;;;;;;43.63;27.75;;;;;;;;;;5061186;28;20286;-74
2021/01/26 00:30:32;;;;;;;42.75;28.70;;;;;;;;;;5071408;28;20188;-74
2021/01/26 00:32:59;;;;;;;41.63;27.60;;;;;;;;;;5059481;28;20203;-72
2021/01/26 00:35:26;;;;;;;41.78;28.88;;;;;;;;;;5071595;28;20180;-73
2021/01/26 00:37:52;;;;;;;45.85;30.80;;;;;;;;;;5071610;28;20279;-74
2021/01/26 00:40:18;;;;;;;41.78;28.95;;;;;;;;;;5071202;28;20188;-75
2021/01/26 00:42:45;;;;;;;41.70;28.65;;;;;;;;;;5071574;28;20212;-73
2021/01/26 00:45:12;;;;;;;45.25;29.85;;;;;;;;;;5071005;28;20183;-73
2021/01/26 00:47:38;;;;;;;40.95;29.20;;;;;;;;;;5061967;28;20192;-75
2021/01/26 00:50:05;;;;;;;44.28;29.65;;;;;;;;;;5071534;28;20266;-74
2021/01/26 00:52:31;;;;;;;42.88;30.00;;;;;;;;;;5071051;28;20207;-75
2021/01/26 00:54:57;;;;;;;44.35;31.27;;;;;;;;;;5071389;28;20181;-73
2021/01/26 00:57:23;;;;;;;42.75;29.67;;;;;;;;;;5070695;28;20188;-73
2021/01/26 00:59:50;;;;;;;44.45;30.00;;;;;;;;;;5071467;28;20252;-72
2021/01/26 01:02:16;;;;;;;43.42;30.65;;;;;;;;;;5071387;28;20309;-74
2021/01/26 01:04:43;;;;;;;41.78;29.52;;;;;;;;;;5071071;28;20191;-74
2021/01/26 01:07:09;;;;;;;45.45;29.80;;;;;;;;;;5071176;28;20200;-74
2021/01/26 01:09:35;;;;;;;43.38;30.25;;;;;;;;;;5071426;28;20184;-74
2021/01/26 01:12:01;;;;;;;44.35;29.73;;;;;;;;;;5071190;28;20193;-73
2021/01/26 01:14:27;;;;;;;49.33;31.63;;;;;;;;;;5070687;28;20191;-74
2021/01/26 01:16:54;;;;;;;45.70;30.17;;;;;;;;;;5070841;28;20184;-74
2021/01/26 01:19:20;;;;;;;48.58;29.08;;;;;;;;;;5073808;28;20204;-72
2021/01/26 01:21:47;;;;;;;41.17;28.15;;;;;;;;;;5074208;28;20180;-74
2021/01/26 01:24:13;;;;;;;44.55;28.50;;;;;;;;;;5075031;28;20168;-72
2021/01/26 01:26:39;;;;;;;41.55;28.77;;;;;;;;;;5075763;28;20188;-73
2021/01/26 01:29:05;;;;;;;42.78;28.83;;;;;;;;;;5075752;28;20261;-74
2021/01/26 01:31:31;;;;;;;46.08;28.00;;;;;;;;;;5074640;28;20176;-73
2021/01/26 01:33:57;;;;;;;39.13;26.88;;;;;;;;;;5072929;28;20184;-75
2021/01/26 01:36:23;;;;;;;37.33;27.27;;;;;;;;;;5073789;28;20176;-71
2021/01/26 01:38:49;;;;;;;40.95;28.63;;;;;;;;;;5074512;28;20176;-73
2021/01/26 01:41:15;;;;;;;43.33;28.20;;;;;;;;;;5073947;28;20175;-74
2021/01/26 01:43:41;;;;;;;39.25;27.10;;;;;;;;;;5073282;28;20549;-71
2021/01/26 01:46:13;;;;;;;40.05;27.30;;;;;;;;;;5074138;28;20225;-73
2021/01/26 01:48:39;;;;;;;38.78;27.00;;;;;;;;;;5073629;28;20200;-75
2021/01/26 01:51:10;;;;;;;39.08;26.42;;;;;;;;;;5073904;28;20215;-74
2021/01/26 01:53:44;;;;;;;38.97;26.50;;;;;;;;;;5073064;28;20192;-74
2021/01/26 01:56:12;;;;;;;41.83;27.30;;;;;;;;;;5060928;28;20168;-73
2021/01/26 01:58:40;;;;;;;42.38;28.27;;;;;;;;;;5073488;28;20282;-74
2021/01/26 02:01:14;;;;;;;41.50;27.95;;;;;;;;;;5065199;28;20176;-72
2021/01/26 02:03:42;;;;;;;42.10;28.10;;;;;;;;;;5073164;28;20204;-72
2021/01/26 02:06:09;;;;;;;38.70;27.85;;;;;;;;;;5074062;28;20203;-72
2021/01/26 02:08:41;;;;;;;42.15;28.70;;;;;;;;;;5069085;28;20208;-73
2021/01/26 02:11:07;;;;;;;45.38;28.95;;;;;;;;;;5067776;28;20177;-75
2021/01/26 02:13:33;;;;;;;43.33;29.67;;;;;;;;;;5073129;28;20269;-72
2021/01/26 02:16:01;;;;;;;43.78;29.70;;;;;;;;;;5073913;28;20168;-75
2021/01/26 02:18:50;;;;;;;48.83;29.42;;;;;;;;;;5073371;28;20176;-73
2021/01/26 02:21:43;;;;;;;46.55;31.20;;;;;;;;;;5051348;28;20223;-73
2021/01/26 02:24:12;;;;;;;46.28;28.17;;;;;;;;;;5072907;28;20199;-73
2021/01/26 02:26:41;;;;;;;48.00;30.52;;;;;;;;;;5073271;28;20187;-73
2021/01/26 02:29:36;;;;;;;52.70;32.50;;;;;;;;;;5071554;28;20286;-75
2021/01/26 02:32:24;;;;;;;52.40;32.10;;;;;;;;;;5064396;28;20219;-73
2021/01/26 02:35:19;;;;;;;51.10;32.40;;;;;;;;;;5072904;28;20687;-75
2021/01/26 02:37:48;;;;;;;46.28;31.35;;;;;;;;;;5053087;28;20289;-75
2021/01/26 02:40:33;;;;;;;52.20;32.97;;;;;;;;;;5073079;28;20549;-74
2021/01/26 02:43:08;;;;;;;52.75;31.80;;;;;;;;;;5072842;28;20204;-75
2021/01/26 02:45:41;;;;;;;46.85;31.45;;;;;;;;;;5072939;28;20261;-73
2021/01/26 02:48:16;;;;;;;52.88;34.17;;;;;;;;;;5071495;28;20560;-73
2021/01/26 02:50:51;;;;;;;52.33;32.08;;;;;;;;;;5073238;28;20247;-71
2021/01/26 02:53:28;;;;;;;50.72;33.03;;;;;;;;;;5071464;28;20664;-72
2021/01/26 02:56:06;;;;;;;56.40;33.80;;;;;;;;;;5072676;28;20172;-74
2021/01/26 02:58:40;;;;;;;51.75;31.45;;;;;;;;;;5072614;28;20176;-74
2021/01/26 03:01:06;;;;;;;55.72;35.58;;;;;;;;;;5073190;28;20529;-72
2021/01/26 03:03:38;;;;;;;50.22;32.50;;;;;;;;;;5072714;28;20196;-76
2021/01/26 03:06:06;;;;;;;50.30;32.97;;;;;;;;;;5072823;28;20224;-75
2021/01/26 03:08:32;;;;;;;50.92;32.40;;;;;;;;;;5072555;28;20231;-72
2021/01/26 03:11:18;;;;;;;50.33;34.20;;;;;;;;;;5073140;28;20530;-75
2021/01/26 03:13:49;;;;;;;50.83;32.85;;;;;;;;;;5049583;28;20223;-74
2021/01/26 03:16:16;;;;;;;52.53;33.85;;;;;;;;;;5072632;28;20579;-73
2021/01/26 03:18:44;;;;;;;48.85;33.10;;;;;;;;;;5072574;28;20193;-73
2021/01/26 03:21:13;;;;;;;49.38;32.97;;;;;;;;;;5072346;28;20514;-76
2021/01/26 03:23:41;;;;;;;47.60;33.13;;;;;;;;;;5072230;28;20230;-74
2021/01/26 03:26:09;;;;;;;46.83;31.83;;;;;;;;;;5072525;28;20183;-71
2021/01/26 03:28:37;;;;;;;48.60;33.13;;;;;;;;;;5072309;28;20195;-71
2021/01/26 03:31:03;;;;;;;51.58;33.97;;;;;;;;;;5072835;28;20176;-74
2021/01/26 03:33:35;;;;;;;46.92;33.10;;;;;;;;;;5072353;28;20227;-73
2021/01/26 03:36:01;;;;;;;45.67;31.45;;;;;;;;;;5072777;28;20202;-71
2021/01/26 03:38:28;;;;;;;45.28;31.80;;;;;;;;;;5072460;28;20183;-72
2021/01/26 03:40:55;;;;;;;51.47;31.92;;;;;;;;;;5072576;28;20263;-76
2021/01/26 03:43:22;;;;;;;46.00;32.20;;;;;;;;;;5072174;28;20211;-71
2021/01/26 03:46:05;;;;;;;44.53;31.35;;;;;;;;;;5072024;28;20523;-73
2021/01/26 03:48:31;;;;;;;46.08;30.25;;;;;;;;;;5072531;28;20203;-73
2021/01/26 03:51:02;;;;;;;44.20;33.10;;;;;;;;;;5075112;28;20173;-73
2021/01/26 03:53:51;;;;;;;44.88;31.10;;;;;;;;;;5075472;28;20224;-72
2021/01/26 03:56:44;;;;;;;45.70;30.33;;;;;;;;;;5076013;28;20180;-75
2021/01/26 03:59:30;;;;;;;49.50;30.65;;;;;;;;;;5075854;28;20533;-73
2021/01/26 04:02:17;;;;;;;49.58;30.88;;;;;;;;;;5073895;28;20599;-75
2021/01/26 04:04:45;;;;;;;43.17;29.27;;;;;;;;;;5076086;28;20567;-74
2021/01/26 04:07:24;;;;;;;43.13;30.67;;;;;;;;;;5075737;28;20220;-73
2021/01/26 04:09:56;;;;;;;44.53;29.67;;;;;;;;;;5075966;28;20568;-75
2021/01/26 04:12:24;;;;;;;45.40;30.80;;;;;;;;;;5075879;28;20204;-74
2021/01/26 04:14:50;;;;;;;45.15;30.50;;;;;;;;;;5075679;28;20174;-72
2021/01/26 04:17:21;;;;;;;45.78;30.25;;;;;;;;;;5075750;28;20207;-73
2021/01/26 04:19:59;;;;;;;46.35;31.45;;;;;;;;;;5075891;28;20176;-73
2021/01/26 04:22:26;;;;;;;43.10;30.73;;;;;;;;;;5075787;28;20616;-75
2021/01/26 04:24:52;;;;;;;42.70;30.45;;;;;;;;;;5075341;28;20176;-73
2021/01/26 04:27:20;;;;;;;41.83;29.95;;;;;;;;;;5075207;28;20260;-72
2021/01/26 04:29:47;;;;;;;49.55;32.25;;;;;;;;;;5075153;28;20230;-75
2021/01/26 04:32:14;;;;;;;46.10;32.13;;;;;;;;;;5075741;28;20192;-75
2021/01/26 04:34:40;;;;;;;43.90;30.88;;;;;;;;;;5076591;28;20264;-70
2021/01/26 04:37:06;;;;;;;47.47;32.22;;;;;;;;;;5075707;28;20172;-75
2021/01/26 04:39:32;;;;;;;49.25;32.17;;;;;;;;;;5075524;28;20571;-73
2021/01/26 04:42:20;;;;;;;45.22;30.95;;;;;;;;;;5075304;28;20280;-75
2021/01/26 04:44:58;;;;;;;44.05;31.25;;;;;;;;;;5065059;28;20506;-74
2021/01/26 04:47:28;;;;;;;41.75;28.92;;;;;;;;;;5075258;28;20255;-73
2021/01/26 04:50:13;;;;;;;48.92;30.58;;;;;;;;;;5075437;28;20176;-75
2021/01/26 04:53:15;;;;;;;45.60;31.23;;;;;;;;;;5073844;28;20203;-74
2021/01/26 04:55:56;;;;;;;48.58;32.58;;;;;;;;;;5033054;28;20724;-74
2021/01/26 04:58:22;;;;;;;51.50;34.55;;;;;;;;;;5070562;28;20184;-75
2021/01/26 05:01:06;;;;;;;47.00;32.47;;;;;;;;;;5074218;28;20243;-74
2021/01/26 05:03:40;;;;;;;44.50;30.55;;;;;;;;;;5074977;28;20196;-72
2021/01/26 05:06:09;;;;;;;41.92;30.40;;;;;;;;;;5074950;28;20180;-75
2021/01/26 05:08:41;;;;;;;39.10;29.95;;;;;;;;;;5074339;28;20282;-75
2021/01/26 05:11:07;;;;;;;40.33;28.70;;;;;;;;;;5074763;28;20576;-72
2021/01/26 05:13:38;;;;;;;42.80;30.25;;;;;;;;;;5074983;28;20546;-74
2021/01/26 05:16:25;;;;;;;43.95;30.83;;;;;;;;;;5074680;28;20627;-73
2021/01/26 05:18:53;;;;;;;40.13;29.38;;;;;;;;;;5074736;28;20253;-76
2021/01/26 05:21:38;;;;;;;45.03;31.33;;;;;;;;;;5074727;28;20183;-75
2021/01/26 05:24:08;;;;;;;44.22;29.13;;;;;;;;;;5074199;28;20180;-73
2021/01/26 05:26:34;;;;;;;46.10;31.25;;;;;;;;;;5074235;28;20187;-73
2021/01/26 05:29:00;;;;;;;44.25;31.35;;;;;;;;;;5073832;28;20557;-76
2021/01/26 05:31:28;;;;;;;40.85;28.92;;;;;;;;;;5074501;28;20580;-76
2021/01/26 05:34:07;;;;;;;44.38;30.30;;;;;;;;;;5074146;28;20250;-73
2021/01/26 05:36:33;;;;;;;45.03;32.45;;;;;;;;;;5074246;28;20183;-74
2021/01/26 05:38:59;;;;;;;43.75;31.23;;;;;;;;;;5074723;28;20256;-73
2021/01/26 05:41:26;;;;;;;44.75;32.38;;;;;;;;;;5074209;28;20199;-72
2021/01/26 05:43:52;;;;;;;44.30;30.40;;;;;;;;;;5073749;28;20199;-73
2021/01/26 05:46:37;;;;;;;48.25;32.30;;;;;;;;;;5073946;28;20184;-73
2021/01/26 05:49:04;;;;;;;44.72;31.17;;;;;;;;;;5072589;28;20215;-74
2021/01/26 05:51:31;;;;;;;46.10;31.52;;;;;;;;;;5073917;28;20168;-73
2021/01/26 05:53:59;;;;;;;48.72;31.50;;;;;;;;;;5073791;28;20196;-76
2021/01/26 05:56:26;;;;;;;50.28;32.83;;;;;;;;;;5073424;28;20246;-74
2021/01/26 05:58:52;;;;;;;49.35;32.38;;;;;;;;;;5073264;28;20187;-74
2021/01/26 06:01:24;;;;;;;46.13;31.55;;;;;;;;;;5073593;28;20229;-74
2021/01/26 06:04:07;;;;;;;46.42;31.85;;;;;;;;;;5073551;28;20204;-73
2021/01/26 06:06:47;;;;;;;48.67;32.22;;;;;;;;;;5073544;28;20217;-74
2021/01/26 06:09:13;;;;;;;48.63;31.85;;;;;;;;;;5073763;28;20196;-74
2021/01/26 06:11:39;;;;;;;54.00;33.92;;;;;;;;;;5073186;28;20192;-73
2021/01/26 06:14:12;;;;;;;51.65;33.85;;;;;;;;;;5072634;28;20625;-75
2021/01/26 06:16:38;;;;;;;46.70;32.35;;;;;;;;;;5073389;28;20634;-73
2021/01/26 06:19:04;;;;;;;53.17;33.38;;;;;;;;;;5073705;28;20703;-72
2021/01/26 06:21:31;;;;;;;57.67;33.95;;;;;;;;;;5072933;28;20176;-76
2021/01/26 06:24:00;;;;;;;50.85;32.40;;;;;;;;;;5071901;28;20223;-75
2021/01/26 06:26:33;;;;;;;54.65;35.38;;;;;;;;;;5073293;28;20172;-73
2021/01/26 06:29:22;;;;;;;53.65;33.65;;;;;;;;;;5072278;28;20200;-73
2021/01/26 06:31:54;;;;;;;59.08;35.53;;;;;;;;;;5066286;28;20227;-75
2021/01/26 06:34:33;;;;;;;52.50;34.78;;;;;;;;;;5073118;28;20207;-73
2021/01/26 06:37:02;;;;;;;54.25;35.10;;;;;;;;;;5073155;28;20171;-70
2021/01/26 06:39:34;;;;;;;54.00;33.70;;;;;;;;;;5073175;28;20229;-71
2021/01/26 06:42:16;;;;;;;51.42;31.77;;;;;;;;;;5073177;28;20556;-73
2021/01/26 06:45:02;;;;;;;51.03;33.95;;;;;;;;;;5072623;28;20188;-75
2021/01/26 06:47:45;;;;;;;56.20;36.40;;;;;;;;;;5059770;28;20203;-71
2021/01/26 06:50:14;;;;;;;59.70;35.33;;;;;;;;;;5073021;28;20208;-75
2021/01/26 06:52:59;;;;;;;52.70;36.00;;;;;;;;;;5072680;28;20196;-73
2021/01/26 06:55:28;;;;;;;59.53;36.05;;;;;;;;;;5072580;28;20202;-73
2021/01/26 06:58:02;;;;;;;54.78;35.17;;;;;;;;;;5065363;28;20172;-75
2021/01/26 07:00:42;;;;;;;60.83;35.20;;;;;;;;;;5071092;28;20186;-75
2021/01/26 07:03:27;;;;;;;58.20;34.95;;;;;;;;;;5072799;28;20200;-74
2021/01/26 07:06:08;;;;;;;56.00;35.83;;;;;;;;;;5072771;28;20180;-74
2021/01/26 07:08:49;;;;;;;58.10;36.60;;;;;;;;;;5062918;28;20199;-75
2021/01/26 07:11:34;;;;;;;66.85;38.58;;;;;;;;;;5072474;28;20180;-75
2021/01/26 07:14:10;;;;;;;68.05;37.00;;;;;;;;;;5072329;28;20180;-72
2021/01/26 07:16:39;;;;;;;58.65;36.45;;;;;;;;;;5072596;28;20179;-72
2021/01/26 07:19:24;;;;;;;61.28;38.42;;;;;;;;;;5071520;28;20184;-73
2021/01/26 07:22:08;;;;;;;69.30;39.35;;;;;;;;;;5072525;28;20180;-72
2021/01/26 07:24:53;;;;;;;65.88;38.67;;;;;;;;;;5074823;28;20197;-73
2021/01/26 07:27:39;;;;;;;64.20;39.90;;;;;;;;;;5076309;28;20175;-75
2021/01/26 07:30:17;;;;;;;63.40;36.38;;;;;;;;;;5052245;28;20195;-71
2021/01/26 07:32:43;;;;;;;73.53;39.30;;;;;;;;;;5075430;28;20192;-72
2021/01/26 07:35:18;;;;;;;67.47;39.80;;;;;;;;;;5074842;28;20176;-75
2021/01/26 07:37:44;;;;;;;68.82;39.42;;;;;;;;;;5076098;28;20574;-75
2021/01/26 07:40:16;;;;;;;60.08;38.15;;;;;;;;;;5077013;28;20267;-73
2021/01/26 07:42:53;;;;;;;62.17;38.28;;;;;;;;;;5076616;28;20196;-73
2021/01/26 07:45:22;;;;;;;66.75;39.28;;;;;;;;;;5076369;28;20219;-76
2021/01/26 07:47:53;;;;;;;61.65;38.38;;;;;;;;;;5076416;28;20232;-74
2021/01/26 07:50:22;;;;;;;71.03;40.95;;;;;;;;;;5076039;28;20210;-74
2021/01/26 07:52:52;;;;;;;63.47;38.83;;;;;;;;;;5070953;28;20275;-74
2021/01/26 07:55:37;;;;;;;65.78;38.80;;;;;;;;;;5069069;28;20184;-71
2021/01/26 07:58:21;;;;;;;67.40;41.17;;;;;;;;;;5058759;28;20189;-73
2021/01/26 08:00:50;;;;;;;64.85;41.00;;;;;;;;;;5069918;28;20263;-73
2021/01/26 08:03:21;;;;;;;62.28;40.35;;;;;;;;;;5072471;28;20228;-73
2021/01/26 08:05:48;;;;;;;67.68;40.70;;;;;;;;;;5071697;28;20229;-75
2021/01/26 08:08:34;;;;;;;68.53;38.95;;;;;;;;;;5072264;28;20207;-74
2021/01/26 08:11:07;;;;;;;62.70;37.72;;;;;;;;;;5064874;28;20535;-72
2021/01/26 08:13:35;;;;;;;58.85;38.95;;;;;;;;;;5075921;28;20200;-76
2021/01/26 08:16:15;;;;;;;58.45;38.75;;;;;;;;;;5072098;28;20180;-73
2021/01/26 08:18:42;;;;;;;63.00;40.05;;;;;;;;;;5070423;28;20332;-74
2021/01/26 08:21:27;;;;;;;59.25;38.15;;;;;;;;;;5072225;28;20611;-75
2021/01/26 08:24:07;;;;;;;50.75;34.03;;;;;;;;;;5069028;28;20278;-71
2021/01/26 08:26:33;;;;;;;61.70;37.40;;;;;;;;;;5071771;28;20521;-72
2021/01/26 08:28:59;;;;;;;59.55;36.72;;;;;;;;;;5071675;28;20200;-75
2021/01/26 08:31:28;;;;;;;50.35;36.03;;;;;;;;;;5071509;28;20652;-74
2021/01/26 08:33:55;;;;;;;53.50;36.15;;;;;;;;;;5071406;28;20553;-76
2021/01/26 08:36:27;;;;;;;58.05;36.08;;;;;;;;;;5070743;28;20176;-77
2021/01/26 08:38:55;;;;;;;53.17;33.15;;;;;;;;;;5071916;28;20188;-73
2021/01/26 08:41:41;;;;;;;58.35;36.60;;;;;;;;;;5071070;28;20184;-74
2021/01/26 08:44:09;;;;;;;49.25;34.38;;;;;;;;;;5071555;28;20190;-74
2021/01/26 08:46:42;;;;;;;52.95;35.55;;;;;;;;;;5071493;28;20209;-75
2021/01/26 08:49:20;;;;;;;59.47;37.72;;;;;;;;;;5070377;28;20212;-74
2021/01/26 08:51:47;;;;;;;54.67;36.85;;;;;;;;;;5071738;28;20182;-75
2021/01/26 08:54:32;;;;;;;52.88;36.85;;;;;;;;;;5073293;28;20207;-76
2021/01/26 08:56:58;;;;;;;51.25;36.88;;;;;;;;;;5071096;28;20188;-77
2021/01/26 08:59:31;;;;;;;57.10;37.65;;;;;;;;;;5071701;28;20495;-74
2021/01/26 09:01:57;;;;;;;50.28;34.22;;;;;;;;;;5070807;28;20208;-75
2021/01/26 09:04:30;;;;;;;50.22;34.78;;;;;;;;;;5071104;28;20188;-73
2021/01/26 09:06:56;;;;;;;48.17;34.33;;;;;;;;;;5071225;28;20188;-73
2021/01/26 09:09:22;;;;;;;49.20;33.50;;;;;;;;;;5071182;28;20200;-72
2021/01/26 09:11:51;;;;;;;48.65;33.95;;;;;;;;;;5070714;28;20195;-75
2021/01/26 09:14:36;;;;;;;51.42;36.15;;;;;;;;;;5070883;28;20179;-73
2021/01/26 09:17:02;;;;;;;51.63;35.08;;;;;;;;;;5069461;28;20184;-75
2021/01/26 09:19:33;;;;;;;46.70;34.95;;;;;;;;;;5071258;28;20211;-74
2021/01/26 09:22:10;;;;;;;48.47;34.78;;;;;;;;;;5072440;28;20321;-74
2021/01/26 09:24:37;;;;;;;54.88;36.25;;;;;;;;;;5065823;28;20621;-75
2021/01/26 09:27:24;;;;;;;51.33;34.83;;;;;;;;;;5070815;28;20263;-76
2021/01/26 09:30:09;;;;;;;49.70;34.85;;;;;;;;;;5069852;28;20184;-75
2021/01/26 09:32:36;;;;;;;45.65;33.22;;;;;;;;;;5070589;28;20615;-74
2021/01/26 09:35:13;;;;;;;45.72;34.92;;;;;;;;;;5060276;28;20226;-74
2021/01/26 09:37:39;;;;;;;46.95;34.85;;;;;;;;;;5065169;28;20175;-76
2021/01/26 09:40:07;;;;;;;46.00;32.85;;;;;;;;;;5070461;28;20549;-72
2021/01/26 09:42:33;;;;;;;50.42;37.05;;;;;;;;;;5070537;28;20199;-73
2021/01/26 09:45:04;;;;;;;49.72;34.97;;;;;;;;;;5070068;28;20184;-76
2021/01/26 09:47:30;;;;;;;49.50;33.90;;;;;;;;;;5068538;28;20203;-76
2021/01/26 09:50:06;;;;;;;45.60;33.58;;;;;;;;;;5069839;28;20183;-75
2021/01/26 09:52:32;;;;;;;50.00;33.00;;;;;;;;;;5070628;28;20206;-75
2021/01/26 09:55:06;;;;;;;44.60;32.08;;;;;;;;;;5070083;28;20234;-74
2021/01/26 09:57:32;;;;;;;44.58;32.42;;;;;;;;;;5059153;28;20173;-75
2021/01/26 09:59:58;;;;;;;44.60;29.35;;;;;;;;;;5070006;28;20184;-73
2021/01/26 10:02:24;;;;;;;38.65;30.10;;;;;;;;;;5070141;28;20196;-77
2021/01/26 10:04:50;;;;;;;43.17;30.77;;;;;;;;;;5069946;28;20233;-75
2021/01/26 10:07:18;;;;;;;43.33;31.65;;;;;;;;;;5070068;28;20249;-73
2021/01/26 10:09:44;;;;;;;41.42;31.13;;;;;;;;;;5069457;28;20215;-76
2021/01/26 10:12:16;;;;;;;42.13;31.05;;;;;;;;;;5069994;28;20311;-72
2021/01/26 10:15:02;;;;;;;40.42;31.05;;;;;;;;;;5069355;28;20191;-75
2021/01/26 10:17:29;;;;;;;40.38;29.42;;;;;;;;;;5069697;28;20203;-73
2021/01/26 10:19:58;;;;;;;41.88;31.95;;;;;;;;;;5068042;28;20317;-77
2021/01/26 10:22:26;;;;;;;42.15;31.40;;;;;;;;;;5069821;28;20200;-74
2021/01/26 10:24:52;;;;;;;44.28;31.42;;;;;;;;;;5069168;28;20187;-75
2021/01/26 10:27:25;;;;;;;39.00;29.85;;;;;;;;;;5069950;28;20184;-76
2021/01/26 10:30:06;;;;;;;36.10;29.80;;;;;;;;;;5069196;28;20405;-75
2021/01/26 10:32:40;;;;;;;39.53;30.27;;;;;;;;;;5069995;28;20569;-74
2021/01/26 10:35:21;;;;;;;36.08;27.60;;;;;;;;;;5069170;28;20199;-73
2021/01/26 10:37:47;;;;;;;41.42;30.75;;;;;;;;;;5069241;28;20310;-73
2021/01/26 10:40:18;;;;;;;36.33;28.05;;;;;;;;;;5069286;28;20188;-75
2021/01/26 10:42:47;;;;;;;39.85;27.65;;;;;;;;;;5069529;28;20597;-73
2021/01/26 10:45:13;;;;;;;35.85;28.60;;;;;;;;;;5068955;28;20641;-76
2021/01/26 10:47:41;;;;;;;35.45;27.48;;;;;;;;;;5070774;28;20648;-73
2021/01/26 10:50:10;;;;;;;33.28;26.45;;;;;;;;;;5069458;28;20511;-75
2021/01/26 10:52:43;;;;;;;33.65;27.10;;;;;;;;;;5069671;28;20196;-76
2021/01/26 10:55:11;;;;;;;30.35;26.10;;;;;;;;;;5069378;28;20204;-75
2021/01/26 10:57:37;;;;;;;31.13;25.60;;;;;;;;;;5057528;28;20176;-74
2021/01/26 11:00:05;;;;;;;31.85;26.10;;;;;;;;;;5068801;28;20623;-75
2021/01/26 11:02:31;;;;;;;32.33;26.42;;;;;;;;;;5069063;28;20250;-73
2021/01/26 11:04:57;;;;;;;32.00;25.83;;;;;;;;;;5068951;28;20176;-73
2021/01/26 11:07:23;;;;;;;35.83;26.02;;;;;;;;;;5069094;28;20192;-73
2021/01/26 11:09:49;;;;;;;30.50;23.75;;;;;;;;;;5069110;28;20222;-76
2021/01/26 11:12:19;;;;;;;28.75;23.75;;;;;;;;;;5069662;28;20215;-75
2021/01/26 11:14:46;;;;;;;33.00;25.67;;;;;;;;;;5068032;28;20639;-74
2021/01/26 11:17:12;;;;;;;30.95;25.20;;;;;;;;;;5069132;28;20183;-74
2021/01/26 11:19:38;;;;;;;29.80;24.23;;;;;;;;;;5068680;28;20199;-75
2021/01/26 11:22:04;;;;;;;26.90;22.75;;;;;;;;;;5068900;28;20204;-71
2021/01/26 11:24:30;;;;;;;26.25;21.80;;;;;;;;;;5068796;28;20180;-73
2021/01/26 11:26:56;;;;;;;28.75;23.00;;;;;;;;;;5069279;28;20183;-74
2021/01/26 11:29:22;;;;;;;25.27;21.33;;;;;;;;;;5068104;28;20232;-73
2021/01/26 11:31:48;;;;;;;23.77;21.27;;;;;;;;;;5068441;28;20245;-71
2021/01/26 11:34:15;;;;;;;23.58;20.23;;;;;;;;;;5068643;28;20176;-73
2021/01/26 11:36:41;;;;;;;26.95;21.58;;;;;;;;;;5068855;28;20188;-73
2021/01/26 11:39:07;;;;;;;26.33;20.42;;;;;;;;;;5068891;28;20186;-72
2021/01/26 11:41:34;;;;;;;25.17;22.38;;;;;;;;;;5068241;28;20196;-72
2021/01/26 11:44:00;;;;;;;21.02;18.63;;;;;;;;;;5065501;28;20176;-74
2021/01/26 11:46:26;;;;;;;21.73;19.42;;;;;;;;;;5069012;28;20522;-74
2021/01/26 11:48:52;;;;;;;28.42;19.67;;;;;;;;;;5076887;28;20211;-73
2021/01/26 11:51:18;;;;;;;19.98;17.63;;;;;;;;;;5068960;28;20593;-76
2021/01/26 11:53:44;;;;;;;21.75;18.70;;;;;;;;;;5068109;28;20200;-74
2021/01/26 11:56:10;;;;;;;20.52;18.20;;;;;;;;;;5067798;28;20184;-73
2021/01/26 11:58:36;;;;;;;18.98;17.05;;;;;;;;;;5069142;28;20221;-76
2021/01/26 12:01:03;;;;;;;21.17;17.13;;;;;;;;;;5068311;28;20184;-74
2021/01/26 12:03:29;;;;;;;20.50;16.98;;;;;;;;;;5068160;28;20192;-75
2021/01/26 12:05:55;;;;;;;17.95;14.60;;;;;;;;;;5068321;28;20195;-71
2021/01/26 12:08:21;;;;;;;20.75;16.10;;;;;;;;;;5068180;28;20226;-75
2021/01/26 12:10:48;;;;;;;20.90;15.50;;;;;;;;;;5068621;28;20199;-72
2021/01/26 12:13:15;;;;;;;16.20;13.50;;;;;;;;;;5072052;28;20196;-74
2021/01/26 12:15:42;;;;;;;18.58;14.32;;;;;;;;;;5070952;28;20180;-72
2021/01/26 12:18:09;;;;;;;16.90;13.93;;;;;;;;;;5075967;28;20179;-73
2021/01/26 12:20:35;;;;;;;17.52;14.93;;;;;;;;;;5058878;28;20204;-74
2021/01/26 12:23:01;;;;;;;17.27;13.55;;;;;;;;;;5071895;28;20250;-73
2021/01/26 12:25:28;;;;;;;14.93;12.48;;;;;;;;;;5071335;28;22157;-73
2021/01/26 12:27:55;;;;;;;18.05;13.80;;;;;;;;;;5071370;28;20203;-72
2021/01/26 12:30:21;;;;;;;18.55;14.18;;;;;;;;;;5071629;28;20774;-72
2021/01/26 12:32:47;;;;;;;19.52;13.93;;;;;;;;;;5070472;28;20204;-76
2021/01/26 12:35:19;;;;;;;16.83;13.70;;;;;;;;;;5071203;28;20289;-73
2021/01/26 12:37:45;;;;;;;17.23;13.00;;;;;;;;;;5071495;28;20176;-72
2021/01/26 12:40:11;;;;;;;16.92;13.45;;;;;;;;;;5071356;28;20176;-73
2021/01/26 12:42:38;;;;;;;18.40;13.40;;;;;;;;;;5071631;28;20204;-72
2021/01/26 12:45:05;;;;;;;16.83;12.70;;;;;;;;;;5071049;28;20207;-74
2021/01/26 12:47:31;;;;;;;18.45;13.43;;;;;;;;;;5071570;28;20187;-72
2021/01/26 12:49:57;;;;;;;16.20;12.55;;;;;;;;;;5071326;28;20557;-76
2021/01/26 12:52:24;;;;;;;15.25;12.93;;;;;;;;;;5071099;28;20619;-75
2021/01/26 12:54:51;;;;;;;16.58;13.45;;;;;;;;;;5071220;28;20172;-73
2021/01/26 12:57:17;;;;;;;16.88;12.85;;;;;;;;;;5071282;28;20255;-73
2021/01/26 12:59:43;;;;;;;17.35;13.48;;;;;;;;;;5070104;28;21066;-73
2021/01/26 13:02:10;;;;;;;16.60;12.75;;;;;;;;;;5070776;28;20192;-73
2021/01/26 13:04:36;;;;;;;14.07;11.18;;;;;;;;;;5071391;28;20661;-74
2021/01/26 13:07:02;;;;;;;14.48;11.30;;;;;;;;;;5070605;28;20702;-71
2021/01/26 13:09:28;;;;;;;12.50;10.00;;;;;;;;;;5070941;28;20573;-72
2021/01/26 13:11:54;;;;;;;10.90;8.65;;;;;;;;;;5070159;28;20544;-69
2021/01/26 13:14:20;;;;;;;11.25;8.45;;;;;;;;;;5070783;28;20172;-71
2021/01/26 13:16:46;;;;;;;10.43;8.23;;;;;;;;;;5070502;28;20179;-71
2021/01/26 13:19:12;;;;;;;9.85;6.70;;;;;;;;;;5071198;28;20177;-73
2021/01/26 13:21:38;;;;;;;7.95;6.68;;;;;;;;;;5070158;28;20176;-74
2021/01/26 13:24:05;;;;;;;9.57;5.80;;;;;;;;;;5070455;28;20183;-73
2021/01/26 13:26:31;;;;;;;6.40;5.68;;;;;;;;;;5068548;28;20180;-75
2021/01/26 13:28:57;;;;;;;8.52;5.95;;;;;;;;;;5069315;28;20211;-74
2021/01/26 13:31:23;;;;;;;7.47;5.00;;;;;;;;;;5071193;28;20672;-73
2021/01/26 13:33:50;;;;;;;6.53;5.35;;;;;;;;;;5070001;28;20562;-72
2021/01/26 13:36:16;;;;;;;7.22;5.57;;;;;;;;;;5070578;28;20184;-74
2021/01/26 13:38:42;;;;;;;6.50;5.63;;;;;;;;;;5070527;28;20180;-74
2021/01/26 13:41:09;;;;;;;10.18;7.15;;;;;;;;;;5069993;28;20916;-71
2021/01/26 13:43:35;;;;;;;8.63;6.95;;;;;;;;;;5069929;28;20253;-73
2021/01/26 13:46:02;;;;;;;13.23;6.70;;;;;;;;;;5070499;28;20296;-73
2021/01/26 13:48:28;;;;;;;9.85;7.25;;;;;;;;;;5068650;28;20203;-73
2021/01/26 13:50:54;;;;;;;9.57;6.65;;;;;;;;;;5070433;28;20181;-73
2021/01/26 13:53:20;;;;;;;3.75;2.50;;;;;;;;;;5069906;28;20568;-74
2021/01/26 13:55:46;;;;;;;4.93;2.40;;;;;;;;;;5069063;28;20188;-73
2021/01/26 13:58:12;;;;;;;3.95;2.35;;;;;;;;;;5069629;28;20233;-71
2021/01/26 14:00:38;;;;;;;3.60;2.15;;;;;;;;;;5070332;28;20537;-74
2021/01/26 14:03:05;;;;;;;3.20;1.92;;;;;;;;;;5070029;28;20929;-72
2021/01/26 14:05:32;;;;;;;3.25;2.08;;;;;;;;;;5069672;28;20629;-72
2021/01/26 14:07:59;;;;;;;5.53;3.03;;;;;;;;;;5069315;28;20214;-71
2021/01/26 14:10:25;;;;;;;3.65;2.88;;;;;;;;;;5069599;28;20668;-73
2021/01/26 14:12:52;;;;;;;5.63;2.20;;;;;;;;;;5069835;28;20228;-72
2021/01/26 14:15:18;;;;;;;9.23;1.98;;;;;;;;;;5073117;28;20187;-73
2021/01/26 14:17:44;;;;;;;4.57;2.22;;;;;;;;;;5069727;28;20529;-73
2021/01/26 14:20:11;;;;;;;2.70;1.95;;;;;;;;;;5069197;28;20328;-73
2021/01/26 14:22:37;;;;;;;3.30;1.70;;;;;;;;;;5069500;28;20372;-73
2021/01/26 14:25:05;;;;;;;2.42;1.83;;;;;;;;;;5068715;28;20180;-73
2021/01/26 14:27:31;;;;;;;2.60;1.40;;;;;;;;;;5069183;28;20218;-75
2021/01/26 14:29:57;;;;;;;3.35;2.05;;;;;;;;;;5069105;28;20180;-72
2021/01/26 14:32:23;;;;;;;3.08;1.83;;;;;;;;;;5069275;28;20200;-71
2021/01/26 14:34:49;;;;;;;4.32;1.77;;;;;;;;;;5068532;28;20180;-73
2021/01/26 14:37:15;;;;;;;3.75;1.88;;;;;;;;;;5069876;28;20830;-74